Terminal Aerodrome Forecast
Issued by NWS Sioux Falls, SD

Home | Current Version | Previous Version | Text Only | Print | Product List | Glossary On
Versions: 1 2 3 4 5 6 7 8 9
538
FTUS43 KFSD 201720
TAFFSD
TAF
KFSD 201720Z 2018/2118 32014KT P6SM SCT018 OVC025
     FM202000 32013KT P6SM VCSH OVC028
     FM202300 34009KT P6SM BKN035
     FM210200 36007KT P6SM SCT045
     FM210500 01004KT P6SM FEW200
     FM211200 06004KT P6SM FEW200=

USA.gov is the U.S. government's official web portal to all federal, state and local government web resources and services.